createdAt,value
2018-12-11T00:00:16.771Z,2.20
2018-12-11T00:02:45.413Z,1.80
2018-12-11T00:05:13.067Z,2.07
2018-12-11T00:07:40.758Z,1.23
2018-12-11T00:10:08.617Z,1.57
2018-12-11T00:12:36.470Z,2.27
2018-12-11T00:15:05.834Z,1.47
2018-12-11T00:17:35.582Z,1.67
2018-12-11T00:20:05.124Z,1.50
2018-12-11T00:22:32.805Z,3.60
2018-12-11T00:25:00.535Z,1.93
2018-12-11T00:27:28.240Z,1.60
2018-12-11T00:29:56.020Z,2.17
2018-12-11T00:32:24.637Z,2.20
2018-12-11T00:34:52.439Z,1.73
2018-12-11T00:37:20.245Z,1.63
2018-12-11T00:39:47.983Z,1.60
2018-12-11T00:42:16.444Z,1.73
2018-12-11T00:44:44.139Z,2.43
2018-12-11T00:47:12.843Z,2.00
2018-12-11T00:49:40.533Z,1.90
2018-12-11T00:52:08.453Z,2.40
2018-12-11T00:54:36.318Z,2.00
2018-12-11T00:57:04.201Z,2.10
2018-12-11T00:59:36.677Z,2.40
2018-12-11T01:02:05.493Z,2.07
2018-12-11T01:04:34.712Z,2.00
2018-12-11T01:07:04.451Z,2.20
2018-12-11T01:09:32.418Z,1.70
2018-12-11T01:12:00.029Z,2.10
2018-12-11T01:14:31.680Z,1.87
2018-12-11T01:17:02.321Z,2.30
2018-12-11T01:19:29.995Z,2.77
2018-12-11T01:22:01.113Z,1.77
2018-12-11T01:24:29.078Z,2.40
2018-12-11T01:26:56.821Z,2.30
2018-12-11T01:29:24.686Z,2.80
2018-12-11T01:31:55.423Z,2.53
2018-12-11T01:34:23.120Z,2.43
2018-12-11T01:36:52.130Z,2.27
2018-12-11T01:39:20.194Z,1.87
2018-12-11T01:41:47.909Z,2.03
2018-12-11T01:44:15.651Z,1.90
2018-12-11T01:46:44.103Z,2.67
2018-12-11T01:49:11.843Z,1.93
2018-12-11T01:51:39.690Z,2.57
2018-12-11T01:54:08.890Z,1.87
2018-12-11T01:56:36.541Z,2.47
2018-12-11T01:59:04.485Z,2.53
2018-12-11T02:01:33.062Z,2.57
2018-12-11T02:04:01.519Z,3.43
2018-12-11T02:06:31.128Z,1.90
2018-12-11T02:08:59.402Z,2.20
2018-12-11T02:11:27.120Z,2.00
2018-12-11T02:13:54.834Z,2.10
2018-12-11T02:16:22.586Z,1.90
2018-12-11T02:18:50.242Z,2.10
2018-12-11T02:21:17.965Z,2.50
2018-12-11T02:23:45.687Z,1.90
2018-12-11T02:26:13.452Z,2.30
2018-12-11T02:28:41.472Z,2.00
2018-12-11T02:31:09.215Z,2.27
2018-12-11T02:33:37.031Z,2.00
2018-12-11T02:36:04.782Z,1.90
2018-12-11T02:38:32.518Z,1.90
2018-12-11T02:41:00.205Z,1.90
2018-12-11T02:43:27.907Z,1.60
2018-12-11T02:45:55.628Z,1.87
2018-12-11T02:48:23.293Z,1.90
2018-12-11T02:50:51.040Z,2.63
2018-12-11T02:53:18.760Z,2.20
2018-12-11T02:55:46.505Z,1.90
2018-12-11T02:58:15.113Z,1.87
2018-12-11T03:00:42.894Z,1.67
2018-12-11T03:03:10.625Z,1.87
2018-12-11T03:05:38.358Z,2.30
2018-12-11T03:08:06.046Z,2.20
2018-12-11T03:10:33.805Z,1.77
2018-12-11T03:13:01.496Z,2.27
2018-12-11T03:15:29.234Z,1.93
2018-12-11T03:17:56.927Z,1.40
2018-12-11T03:20:24.764Z,1.90
2018-12-11T03:22:52.453Z,1.73
2018-12-11T03:25:20.169Z,2.13
2018-12-11T03:27:47.875Z,1.87
2018-12-11T03:30:15.579Z,1.70
2018-12-11T03:32:43.426Z,1.90
2018-12-11T03:35:11.126Z,1.50
2018-12-11T03:37:39.124Z,1.47
2018-12-11T03:40:06.968Z,1.73
2018-12-11T03:42:35.263Z,2.93
2018-12-11T03:45:04.046Z,1.47
2018-12-11T03:47:31.843Z,1.40
2018-12-11T03:49:59.724Z,2.13
2018-12-11T03:52:27.433Z,1.70
2018-12-11T03:54:55.135Z,1.83
2018-12-11T03:57:22.899Z,1.70
2018-12-11T03:59:50.605Z,1.70
2018-12-11T04:02:18.333Z,2.07
2018-12-11T04:04:46.068Z,1.30
2018-12-11T04:07:13.802Z,1.40
2018-12-11T04:09:41.547Z,2.80
2018-12-11T04:12:09.566Z,3.90
2018-12-11T04:14:37.670Z,1.90
2018-12-11T04:17:05.404Z,2.10
2018-12-11T04:19:33.097Z,1.67
2018-12-11T04:22:00.839Z,2.00
2018-12-11T04:24:29.350Z,1.80
2018-12-11T04:26:57.174Z,1.83
2018-12-11T04:29:25.182Z,2.43
2018-12-11T04:31:53.080Z,2.17
2018-12-11T04:34:20.778Z,2.83
2018-12-11T04:36:48.479Z,3.20
2018-12-11T04:39:16.268Z,4.60
2018-12-11T04:41:44.801Z,2.70
2018-12-11T04:44:12.558Z,3.23
2018-12-11T04:46:41.335Z,4.37
2018-12-11T04:49:08.990Z,3.80
2018-12-11T04:51:36.806Z,3.43
2018-12-11T04:54:04.529Z,4.40
2018-12-11T04:56:32.480Z,3.80
2018-12-11T04:59:00.265Z,3.57
2018-12-11T05:01:27.960Z,4.43
2018-12-11T05:03:55.681Z,3.90
2018-12-11T05:06:23.460Z,4.27
2018-12-11T05:08:51.309Z,4.87
2018-12-11T05:11:19.140Z,3.70
2018-12-11T05:13:46.851Z,4.27
2018-12-11T05:16:14.585Z,4.20
2018-12-11T05:18:42.995Z,3.80
2018-12-11T05:21:10.667Z,4.47
2018-12-11T05:23:38.515Z,4.00
2018-12-11T05:26:06.441Z,4.17
2018-12-11T05:28:34.158Z,4.73
2018-12-11T05:31:02.030Z,4.30
2018-12-11T05:33:29.691Z,4.57
2018-12-11T05:35:57.457Z,4.30
2018-12-11T05:38:25.655Z,5.67
2018-12-11T05:40:53.512Z,4.83
2018-12-11T05:43:21.192Z,3.53
2018-12-11T05:45:49.003Z,4.37
2018-12-11T05:48:16.811Z,4.40
2018-12-11T05:50:44.554Z,4.73
2018-12-11T05:53:12.224Z,4.80
2018-12-11T05:55:40.191Z,4.20
2018-12-11T05:58:08.037Z,4.50
2018-12-11T06:00:35.770Z,3.90
2018-12-11T06:03:03.461Z,3.87
2018-12-11T06:05:31.217Z,5.63
2018-12-11T06:07:59.103Z,4.13
2018-12-11T06:10:26.795Z,4.73
2018-12-11T06:12:54.591Z,4.40
2018-12-11T06:15:22.332Z,4.10
2018-12-11T06:17:50.039Z,5.10
2018-12-11T06:20:17.892Z,4.57
2018-12-11T06:22:45.590Z,4.53
2018-12-11T06:25:13.329Z,4.47
2018-12-11T06:27:41.346Z,4.30
2018-12-11T06:30:09.896Z,4.43
2018-12-11T06:32:37.634Z,5.67
2018-12-11T06:35:05.457Z,4.70
2018-12-11T06:37:33.270Z,5.00
2018-12-11T06:40:00.962Z,5.70
2018-12-11T06:42:28.629Z,5.10
2018-12-11T06:44:56.380Z,5.07
2018-12-11T06:47:24.185Z,4.70
2018-12-11T06:49:52.000Z,4.87
2018-12-11T06:52:19.671Z,4.63
2018-12-11T06:54:47.369Z,4.67
2018-12-11T06:57:15.056Z,4.83
2018-12-11T06:59:42.840Z,4.93
2018-12-11T07:02:10.546Z,5.07
2018-12-11T07:04:38.230Z,5.57
2018-12-11T07:07:06.092Z,5.20
2018-12-11T07:09:34.043Z,5.53
2018-12-11T07:12:01.770Z,4.73
2018-12-11T07:14:29.489Z,6.17
2018-12-11T07:16:57.290Z,5.17
2018-12-11T07:19:25.217Z,4.80
2018-12-11T07:21:52.916Z,5.47
2018-12-11T07:24:20.613Z,6.20
2018-12-11T07:26:48.433Z,4.87
2018-12-11T07:29:16.175Z,5.30
2018-12-11T07:31:44.556Z,5.93
2018-12-11T07:34:13.028Z,5.50
2018-12-11T07:36:40.764Z,6.00
2018-12-11T07:39:08.804Z,5.90
2018-12-11T07:41:36.536Z,5.80
2018-12-11T07:44:04.205Z,5.90
2018-12-11T07:46:32.053Z,7.97
2018-12-11T07:48:59.856Z,7.67
2018-12-11T07:51:27.645Z,5.07
2018-12-11T07:53:55.360Z,4.87
2018-12-11T07:56:24.093Z,5.00
2018-12-11T07:58:51.792Z,5.83
2018-12-11T08:01:19.482Z,5.33
2018-12-11T08:03:47.194Z,5.00
2018-12-11T08:06:14.835Z,4.50
2018-12-11T08:08:42.795Z,4.53
2018-12-11T08:11:10.527Z,5.20
2018-12-11T08:13:38.192Z,4.40
2018-12-11T08:16:06.212Z,5.30
2018-12-11T08:18:34.401Z,4.30
2018-12-11T08:21:02.117Z,5.40
2018-12-11T08:23:29.846Z,4.80
2018-12-11T08:25:57.679Z,5.57
2018-12-11T08:28:25.404Z,4.60
2018-12-11T08:30:53.124Z,5.20
2018-12-11T08:33:20.853Z,4.80
2018-12-11T08:35:48.578Z,4.00
2018-12-11T08:38:16.295Z,3.80
2018-12-11T08:40:44.025Z,3.97
2018-12-11T08:43:11.794Z,3.00
2018-12-11T08:45:39.442Z,3.80
2018-12-11T08:48:07.217Z,3.87
2018-12-11T08:50:35.209Z,3.17
2018-12-11T08:53:02.943Z,3.53
2018-12-11T08:55:30.598Z,3.60
2018-12-11T08:57:59.085Z,4.03
2018-12-11T09:00:26.789Z,3.00
2018-12-11T09:02:54.990Z,2.70
2018-12-11T09:05:22.730Z,3.73
2018-12-11T09:07:50.496Z,4.57
2018-12-11T09:10:18.273Z,3.20
2018-12-11T09:12:45.960Z,2.57
2018-12-11T09:15:13.681Z,3.90
2018-12-11T09:17:41.408Z,3.03
2018-12-11T09:20:09.110Z,2.77
2018-12-11T09:22:36.935Z,2.73
2018-12-11T09:25:05.607Z,3.10
2018-12-11T09:27:34.087Z,3.43
2018-12-11T09:30:02.018Z,2.83
2018-12-11T09:32:29.741Z,3.13
2018-12-11T09:34:57.442Z,3.07
2018-12-11T09:37:25.148Z,3.40
2018-12-11T09:39:52.892Z,2.93
2018-12-11T09:42:20.589Z,2.90
2018-12-11T09:44:48.355Z,2.90
2018-12-11T09:47:16.210Z,3.33
2018-12-11T09:49:44.031Z,3.00
2018-12-11T09:52:11.747Z,3.30
2018-12-11T09:54:39.499Z,2.93
2018-12-11T09:57:07.179Z,3.17
2018-12-11T09:59:34.958Z,2.40
2018-12-11T10:02:02.770Z,2.43
2018-12-11T10:04:30.496Z,2.40
2018-12-11T10:06:58.216Z,3.03
2018-12-11T10:09:25.948Z,1.93
2018-12-11T10:11:53.664Z,2.40
2018-12-11T10:14:21.476Z,2.33
2018-12-11T10:16:49.165Z,3.53
2018-12-11T10:19:16.911Z,2.00
2018-12-11T10:21:44.624Z,2.30
2018-12-11T10:24:12.442Z,3.33
2018-12-11T10:26:40.270Z,2.60
2018-12-11T10:29:08.041Z,2.40
2018-12-11T10:31:35.958Z,1.70
2018-12-11T10:34:03.677Z,2.50
2018-12-11T10:36:31.597Z,2.77
2018-12-11T10:38:59.349Z,2.37
2018-12-11T10:41:27.251Z,2.87
2018-12-11T10:43:55.262Z,3.00
2018-12-11T10:46:23.118Z,2.23
2018-12-11T10:48:50.932Z,2.60
2018-12-11T10:51:18.665Z,2.43
2018-12-11T10:53:46.465Z,3.40
2018-12-11T10:56:14.162Z,2.60
2018-12-11T10:58:41.949Z,2.50
2018-12-11T11:01:11.615Z,2.63
2018-12-11T11:03:39.458Z,2.30
2018-12-11T11:06:07.215Z,2.90
2018-12-11T11:08:35.017Z,3.23
2018-12-11T11:11:02.733Z,2.30
2018-12-11T11:13:30.911Z,4.30
2018-12-11T11:15:58.645Z,3.17
2018-12-11T11:18:26.503Z,2.43
2018-12-11T11:20:54.310Z,4.40
2018-12-11T11:23:22.782Z,2.67
2018-12-11T11:25:50.547Z,2.87
2018-12-11T11:28:19.456Z,2.87
2018-12-11T11:30:47.214Z,3.10
2018-12-11T11:33:14.937Z,2.13
2018-12-11T11:35:42.655Z,2.70
2018-12-11T11:38:10.403Z,2.40
2018-12-11T11:40:38.107Z,2.43
2018-12-11T11:43:05.818Z,3.30
2018-12-11T11:45:33.688Z,2.83
2018-12-11T11:48:01.925Z,2.30
2018-12-11T11:50:29.822Z,2.60
2018-12-11T11:52:57.600Z,2.30
2018-12-11T11:55:26.103Z,2.47
2018-12-11T11:57:54.316Z,2.57
2018-12-11T12:00:22.243Z,2.30
2018-12-11T12:02:50.455Z,1.73
2018-12-11T12:05:21.547Z,2.17
2018-12-11T12:07:49.269Z,2.10
2018-12-11T12:10:17.042Z,1.53
2018-12-11T12:12:44.737Z,1.60
2018-12-11T12:15:14.248Z,2.30
2018-12-11T12:17:41.983Z,2.07
2018-12-11T12:20:09.799Z,2.33
2018-12-11T12:22:37.573Z,1.43
2018-12-11T12:25:07.241Z,2.10
2018-12-11T12:27:35.067Z,1.53
2018-12-11T12:30:03.564Z,1.33
2018-12-11T12:32:31.267Z,2.13
2018-12-11T12:34:59.091Z,2.03
2018-12-11T12:37:27.158Z,2.00
2018-12-11T12:39:55.855Z,2.80
2018-12-11T12:42:24.205Z,1.60
2018-12-11T12:44:51.986Z,2.27
2018-12-11T12:47:20.262Z,1.43
2018-12-11T12:49:50.813Z,2.10
2018-12-11T12:52:17.790Z,2.10
2018-12-11T12:54:45.697Z,2.07
2018-12-11T12:57:13.407Z,2.50
2018-12-11T12:59:41.123Z,3.00
2018-12-11T13:02:08.826Z,1.53
2018-12-11T13:04:36.664Z,2.50
2018-12-11T13:07:04.485Z,2.00
2018-12-11T13:09:32.385Z,3.20
2018-12-11T13:12:00.065Z,1.93
2018-12-11T13:14:27.893Z,2.00
2018-12-11T13:16:55.674Z,2.23
2018-12-11T13:19:23.362Z,2.30
2018-12-11T13:21:51.362Z,2.00
2018-12-11T13:24:19.057Z,3.00
2018-12-11T13:26:46.854Z,2.23
2018-12-11T13:29:15.163Z,2.50
2018-12-11T13:31:42.885Z,2.43
2018-12-11T13:34:10.652Z,2.33
2018-12-11T13:36:38.588Z,2.70
2018-12-11T13:39:07.197Z,2.87
2018-12-11T13:41:34.955Z,2.47
2018-12-11T13:44:03.395Z,1.90
2018-12-11T13:46:31.525Z,2.20
2018-12-11T13:48:59.826Z,2.23
2018-12-11T13:51:27.705Z,2.40
2018-12-11T13:53:56.553Z,2.30
2018-12-11T13:56:24.306Z,2.40
2018-12-11T13:58:52.070Z,2.20
2018-12-11T14:03:52.291Z,1.70
2018-12-11T14:06:20.011Z,2.57
2018-12-11T14:08:47.954Z,2.00
2018-12-11T14:11:15.752Z,2.67
2018-12-11T14:13:43.678Z,2.73
2018-12-11T14:16:11.968Z,1.80
2018-12-11T14:18:39.843Z,2.30
2018-12-11T14:21:07.951Z,3.20
2018-12-11T14:23:36.106Z,2.47
2018-12-11T14:26:03.860Z,1.83
2018-12-11T14:28:31.973Z,2.37
2018-12-11T14:30:59.729Z,5.20
2018-12-11T14:33:27.627Z,4.80
2018-12-11T14:35:55.501Z,5.40
2018-12-11T14:38:23.224Z,2.90
2018-12-11T14:40:51.001Z,3.10
2018-12-11T14:43:18.790Z,2.40
2018-12-11T14:45:46.481Z,2.70
2018-12-11T14:48:14.337Z,3.23
2018-12-11T14:50:42.113Z,2.83
2018-12-11T14:53:09.885Z,3.17
2018-12-11T14:55:37.639Z,2.77
2018-12-11T14:58:05.362Z,4.10
2018-12-11T15:00:33.341Z,3.73
2018-12-11T15:03:01.469Z,3.90
2018-12-11T15:05:29.209Z,3.20
2018-12-11T15:07:57.400Z,3.00
2018-12-11T15:10:25.596Z,3.10
2018-12-11T15:12:53.700Z,4.40
2018-12-11T15:15:21.435Z,4.83
2018-12-11T15:17:49.162Z,3.93
2018-12-11T15:20:16.988Z,3.63
2018-12-11T15:22:44.743Z,2.23
2018-12-11T15:25:14.463Z,2.20
2018-12-11T15:27:42.180Z,2.60
2018-12-11T15:30:10.184Z,2.90
2018-12-11T15:32:38.010Z,3.80
2018-12-11T15:35:05.797Z,3.00
2018-12-11T15:37:33.567Z,2.60
2018-12-11T15:40:01.474Z,2.70
2018-12-11T15:42:29.482Z,2.87
2018-12-11T15:44:57.246Z,2.80
2018-12-11T15:47:25.051Z,4.40
2018-12-11T15:49:53.204Z,3.83
2018-12-11T15:52:21.039Z,2.97
2018-12-11T15:54:48.963Z,3.00
2018-12-11T15:57:16.683Z,2.87
2018-12-11T15:59:44.432Z,2.50
2018-12-11T16:02:12.595Z,2.50
2018-12-11T16:04:40.467Z,2.70
2018-12-11T16:07:08.294Z,2.47
2018-12-11T16:09:36.252Z,2.67
2018-12-11T16:12:04.742Z,2.40
2018-12-11T16:14:32.802Z,2.57
2018-12-11T16:17:00.633Z,2.40
2018-12-11T16:19:28.326Z,3.50
2018-12-11T16:21:56.055Z,3.03
2018-12-11T16:24:25.103Z,2.50
2018-12-11T16:26:52.914Z,2.53
2018-12-11T16:29:20.624Z,2.63
2018-12-11T16:31:48.377Z,2.70
2018-12-11T16:34:16.292Z,2.77
2018-12-11T16:36:44.113Z,2.10
2018-12-11T16:39:11.873Z,2.90
2018-12-11T16:41:39.629Z,2.27
2018-12-11T16:44:07.507Z,2.00
2018-12-11T16:46:36.100Z,2.70
2018-12-11T16:49:03.861Z,2.50
2018-12-11T16:51:31.707Z,1.57
2018-12-11T16:53:59.533Z,2.67
2018-12-11T16:56:27.259Z,2.20
2018-12-11T16:58:55.317Z,1.60
2018-12-11T17:01:23.149Z,2.60
2018-12-11T17:03:50.942Z,2.47
2018-12-11T17:06:18.810Z,2.37
2018-12-11T17:08:47.951Z,2.50
2018-12-11T17:11:15.719Z,2.93
2018-12-11T17:13:43.904Z,2.17
2018-12-11T17:16:11.826Z,1.80
2018-12-11T17:18:39.757Z,1.73
2018-12-11T17:21:08.449Z,2.10
2018-12-11T17:23:36.697Z,2.43
2018-12-11T17:26:04.673Z,2.37
2018-12-11T17:28:32.579Z,2.23
2018-12-11T17:31:00.292Z,2.67
2018-12-11T17:33:28.255Z,3.07
2018-12-11T17:35:56.066Z,2.63
2018-12-11T17:38:24.203Z,3.50
2018-12-11T17:40:51.978Z,3.30
2018-12-11T17:43:19.719Z,2.73
2018-12-11T17:45:47.533Z,3.67
2018-12-11T17:48:15.725Z,3.80
2018-12-11T17:50:43.474Z,4.70
2018-12-11T17:53:11.248Z,3.60
2018-12-11T17:55:39.962Z,5.53
2018-12-11T17:58:07.768Z,5.17
2018-12-11T18:00:35.560Z,4.00
2018-12-11T18:03:03.313Z,2.97
2018-12-11T18:05:31.072Z,2.73
2018-12-11T18:07:59.048Z,2.73
2018-12-11T18:10:27.004Z,3.00
2018-12-11T18:12:54.775Z,3.13
2018-12-11T18:15:22.628Z,2.70
2018-12-11T18:17:50.339Z,2.70
2018-12-11T18:20:18.974Z,2.03
2018-12-11T18:22:46.757Z,1.97
2018-12-11T18:25:14.473Z,2.30
2018-12-11T18:27:42.507Z,3.53
2018-12-11T18:30:10.244Z,2.90
2018-12-11T18:32:37.957Z,2.20
2018-12-11T18:35:06.223Z,3.07
2018-12-11T18:37:34.590Z,3.00
2018-12-11T18:40:02.923Z,2.80
2018-12-11T18:42:30.858Z,5.57
2018-12-11T18:45:03.239Z,4.17
2018-12-11T18:47:28.242Z,4.10
2018-12-11T18:49:55.954Z,4.77
2018-12-11T18:52:23.842Z,4.20
2018-12-11T18:54:51.682Z,4.27
2018-12-11T18:57:19.511Z,4.20
2018-12-11T18:59:47.431Z,3.67
2018-12-11T19:02:15.224Z,3.57
2018-12-11T19:04:42.944Z,3.83
2018-12-11T19:07:11.436Z,3.57
2018-12-11T19:09:39.173Z,3.70
2018-12-11T19:12:07.346Z,3.13
2018-12-11T19:14:35.142Z,3.70
2018-12-11T19:17:03.721Z,3.67
2018-12-11T19:19:31.777Z,2.70
2018-12-11T19:22:00.415Z,3.93
2018-12-11T19:24:29.168Z,2.80
2018-12-11T19:26:56.853Z,3.30
2018-12-11T19:29:24.692Z,3.57
2018-12-11T19:31:52.389Z,4.60
2018-12-11T19:34:20.704Z,4.23
2018-12-11T19:36:48.446Z,3.30
2018-12-11T19:39:16.347Z,4.20
2018-12-11T19:41:44.255Z,4.20
2018-12-11T19:44:13.448Z,4.00
2018-12-11T19:46:41.191Z,3.60
2018-12-11T19:49:09.044Z,3.50
2018-12-11T19:51:37.240Z,2.57
2018-12-11T19:54:04.922Z,2.67
2018-12-11T19:56:33.488Z,3.67
2018-12-11T19:59:01.225Z,4.17
2018-12-11T20:01:29.261Z,2.83
2018-12-11T20:03:57.173Z,3.03
2018-12-11T20:06:25.275Z,4.10
2018-12-11T20:08:53.621Z,3.60
2018-12-11T20:11:21.365Z,3.83
2018-12-11T20:13:49.156Z,3.70
2018-12-11T20:16:17.881Z,3.70
2018-12-11T20:18:45.791Z,3.57
2018-12-11T20:21:13.710Z,3.40
2018-12-11T20:23:41.425Z,4.23
2018-12-11T20:26:09.290Z,2.83
2018-12-11T20:28:36.981Z,3.13
2018-12-11T20:31:04.781Z,3.30
2018-12-11T20:33:33.805Z,3.40
2018-12-11T20:36:01.658Z,2.50
2018-12-11T20:38:29.433Z,3.00
2018-12-11T20:40:57.137Z,3.40
2018-12-11T20:43:25.045Z,3.10
2018-12-11T20:45:53.144Z,3.63
2018-12-11T20:48:22.198Z,3.40
2018-12-11T20:50:50.806Z,3.20
2018-12-11T20:53:19.088Z,4.17
2018-12-11T20:55:46.903Z,4.60
2018-12-11T20:58:14.709Z,4.43
2018-12-11T21:00:43.253Z,3.30
2018-12-11T21:03:10.991Z,9.63
2018-12-11T21:05:38.737Z,4.60
2018-12-11T21:08:06.629Z,5.30
2018-12-11T21:10:34.480Z,4.47
2018-12-11T21:13:02.325Z,4.53
2018-12-11T21:15:30.096Z,4.43
2018-12-11T21:17:57.917Z,6.53
2018-12-11T21:20:26.211Z,4.63
2018-12-11T21:22:54.049Z,4.87
2018-12-11T21:25:21.929Z,4.70
2018-12-11T21:27:49.731Z,4.57
2018-12-11T21:30:17.657Z,4.70
2018-12-11T21:32:46.363Z,5.17
2018-12-11T21:35:14.148Z,5.47
2018-12-11T21:37:41.982Z,5.07
2018-12-11T21:40:09.745Z,5.43
2018-12-11T21:42:38.242Z,5.10
2018-12-11T21:45:06.901Z,5.87
2018-12-11T21:47:34.694Z,5.23
2018-12-11T21:50:02.478Z,5.10
2018-12-11T21:52:30.282Z,6.23
2018-12-11T21:54:58.185Z,5.37
2018-12-11T21:57:25.874Z,4.63
2018-12-11T21:59:53.687Z,6.30
2018-12-11T22:02:22.194Z,5.57
2018-12-11T22:04:50.040Z,5.60
2018-12-11T22:07:18.733Z,6.80
2018-12-11T22:09:48.382Z,4.93
2018-12-11T22:12:16.512Z,5.20
2018-12-11T22:14:44.335Z,5.40
2018-12-11T22:17:12.059Z,6.10
2018-12-11T22:19:40.277Z,6.27
2018-12-11T22:22:08.085Z,5.67
2018-12-11T22:24:36.101Z,5.93
2018-12-11T22:27:03.978Z,6.07
2018-12-11T22:29:31.780Z,5.20
2018-12-11T22:31:59.607Z,5.67
2018-12-11T22:34:27.374Z,7.00
2018-12-11T22:39:27.140Z,6.77
2018-12-11T22:41:54.880Z,6.83
2018-12-11T22:44:22.793Z,9.60
2018-12-11T22:46:50.493Z,8.30
2018-12-11T22:49:18.330Z,10.77
2018-12-11T22:51:46.222Z,11.00
2018-12-11T22:54:14.216Z,10.67
2018-12-11T22:56:42.878Z,11.73
2018-12-11T22:59:10.644Z,10.30
2018-12-11T23:01:38.492Z,17.37
2018-12-11T23:04:06.261Z,11.00
2018-12-11T23:06:34.045Z,9.07
2018-12-11T23:09:01.866Z,8.63
2018-12-11T23:11:29.597Z,7.50
2018-12-11T23:13:57.425Z,7.83
2018-12-11T23:16:26.343Z,7.10
2018-12-11T23:18:54.429Z,8.43
2018-12-11T23:21:22.264Z,9.27
2018-12-11T23:23:50.086Z,8.00
2018-12-11T23:26:17.972Z,8.77
2018-12-11T23:28:45.671Z,8.20
2018-12-11T23:31:13.422Z,8.33
2018-12-11T23:33:41.199Z,8.37
2018-12-11T23:36:08.997Z,8.83
2018-12-11T23:38:37.807Z,9.17
2018-12-11T23:41:05.508Z,8.60
2018-12-11T23:43:33.290Z,8.37
2018-12-11T23:46:01.346Z,9.00
2018-12-11T23:48:29.101Z,9.37
2018-12-11T23:50:56.816Z,10.70
2018-12-11T23:53:24.822Z,9.80
2018-12-11T23:55:52.572Z,10.23
2018-12-11T23:58:20.357Z,10.17
